Bookmark and Share
Track history (hours):
 

Concerto

Last reported at 2014-Apr-21 09:33 UTC. Time now 2014-Apr-21 10:15 UTC.
Position N 34°39' E 135°11'.

Length 62 m; draft 3 m.

Type: Passenger vessel. MMSI: 431000448.

NotesDate/timePositionNaut miles runAvg speedWind from/ knotsBaromVisibWave heightAir tempDewpointWater temp
2014-Apr-21 09:33N 34°39' E 135°11'1 0.8
2014-Apr-21 08:33N 34°39' E 135°11'2 2.1
2014-Apr-21 07:29N 34°41' E 135°11'3 3.5
2014-Apr-21 06:33N 34°38' E 135°09'3 3.0
2014-Apr-21 05:28N 34°41' E 135°11'0 0.5
2014-Apr-21 04:33N 34°40' E 135°11'4 3.7
2014-Apr-21 03:33N 34°38' E 135°08'4 3.9
2014-Apr-21 02:33N 34°41' E 135°11'3 0.2
2014-Apr-20 11:33N 34°38' E 135°11'6 5.5
2014-Apr-20 10:33N 34°37' E 135°05'7 6.7
2014-Apr-20 09:32N 34°41' E 135°11'0 0.0
2014-Apr-20 08:25N 34°41' E 135°11'0 0.0
2014-Apr-20 07:31N 34°41' E 135°11'3 3.3
2014-Apr-20 06:33N 34°38' E 135°09'3 2.7
2014-Apr-20 05:23N 34°41' E 135°11'1 0.6
2014-Apr-20 04:34N 34°40' E 135°11'3 3.4
2014-Apr-20 03:33N 34°37' E 135°09'1 0.1
2014-Apr-19 11:33N 34°38' E 135°10'2 2.3
2014-Apr-19 10:32N 34°40' E 135°11'1 1.0
2014-Apr-19 09:33N 34°39' E 135°11'1 0.5
2014-Apr-19 08:33N 34°39' E 135°11'2 2.0
2014-Apr-19 07:28N 34°41' E 135°11'3 3.3
2014-Apr-19 06:33N 34°38' E 135°09'3 2.8
2014-Apr-19 05:29N 34°41' E 135°11'0 0.5
2014-Apr-19 04:33N 34°40' E 135°11'3 3.0
2014-Apr-19 03:33N 34°38' E 135°09'3 3.2
2014-Apr-19 02:34N 34°41' E 135°11'3 0.2
2014-Apr-18 11:33N 34°38' E 135°10'2 1.6
2014-Apr-18 10:33N 34°40' E 135°11'0 0.3
2014-Apr-18 09:33N 34°39' E 135°11'1 0.7
2014-Apr-18 08:33N 34°39' E 135°11'2 2.1
2014-Apr-18 07:33N 34°41' E 135°11'3 3.4
2014-Apr-18 06:34N 34°38' E 135°09'3 1.6
2014-Apr-18 04:33N 34°41' E 135°11'3 3.3
2014-Apr-18 03:33N 34°38' E 135°09'3 3.4
2014-Apr-18 02:33N 34°41' E 135°11'3 0.2
2014-Apr-17 11:33N 34°38' E 135°11'2 1.8
2014-Apr-17 10:33N 34°40' E 135°11'0 0.4
2014-Apr-17 09:34N 34°39' E 135°11'1 1.0
2014-Apr-17 08:34N 34°39' E 135°11'2 2.2
2014-Apr-17 07:30N 34°41' E 135°11'3 3.4
2014-Apr-17 06:33N 34°38' E 135°09'3 3.2
2014-Apr-17 05:32N 34°41' E 135°11'0 0.2
2014-Apr-17 04:33N 34°41' E 135°11'3 3.3
2014-Apr-17 03:33N 34°38' E 135°09'3 3.4
2014-Apr-17 02:33N 34°41' E 135°11'3 0.2
2014-Apr-16 11:33N 34°38' E 135°10'2 1.8
2014-Apr-16 10:33N 34°40' E 135°11'0 0.1
2014-Apr-16 09:33N 34°40' E 135°11'1 1.3
2014-Apr-16 08:33N 34°39' E 135°11'2 2.1
2014-Apr-16 07:29N 34°41' E 135°11'3 3.7
2014-Apr-16 06:33N 34°38' E 135°09'3 3.3
2014-Apr-16 05:32N 34°41' E 135°11'1 0.8
2014-Apr-16 04:34N 34°40' E 135°12'3 2.7
2014-Apr-16 03:33N 34°38' E 135°10'3 3.1
2014-Apr-16 02:33N 34°41' E 135°11'3 0.2
2014-Apr-15 10:34N 34°38' E 135°10'2 2.0
2014-Apr-15 09:34N 34°40' E 135°11'1 0.8
2014-Apr-15 08:34N 34°39' E 135°11'1 0.7
2014-Apr-15 07:34N 34°39' E 135°11'2 2.1
2014-Apr-15 06:32N 34°41' E 135°11'3 3.5
2014-Apr-15 05:34N 34°38' E 135°09'3 1.6
2014-Apr-15 03:34N 34°40' E 135°11'3 3.0
2014-Apr-15 02:34N 34°38' E 135°09'3 3.2
2014-Apr-15 01:33N 34°41' E 135°11'3 0.2
2014-Apr-14 10:33N 34°38' E 135°10'2 2.3
2014-Apr-14 09:34N 34°40' E 135°11'1 0.9
2014-Apr-14 08:34N 34°39' E 135°11'1 0.6
2014-Apr-14 07:34N 34°39' E 135°11'2 2.2
2014-Apr-14 06:31N 34°41' E 135°11'3 3.6
2014-Apr-14 05:33N 34°38' E 135°09'1 0.0
2014-Apr-13 11:34N 34°38' E 135°10'2 2.1
2014-Apr-13 10:34N 34°40' E 135°11'1 1.1
2014-Apr-13 09:33N 34°39' E 135°11'0 0.3
2014-Apr-13 08:33N 34°39' E 135°11'2 1.7
2014-Apr-13 07:29N 34°41' E 135°11'3 3.7
2014-Apr-13 06:33N 34°38' E 135°09'3 3.2
2014-Apr-13 05:30N 34°41' E 135°11'1 0.6
2014-Apr-13 04:33N 34°40' E 135°11'3 3.2
2014-Apr-13 03:33N 34°38' E 135°09'3 3.5
2014-Apr-13 02:33N 34°41' E 135°11'3 0.2
2014-Apr-12 11:33N 34°38' E 135°10'2 1.7
2014-Apr-12 10:33N 34°40' E 135°11'1 0.5
2014-Apr-12 09:33N 34°39' E 135°11'1 0.8
2014-Apr-12 08:33N 34°39' E 135°11'2 2.0
2014-Apr-12 07:23N 34°41' E 135°11'3 3.6
2014-Apr-12 06:33N 34°38' E 135°10'3 2.9
2014-Apr-12 05:33N 34°41' E 135°11'0 0.3
2014-Apr-12 04:33N 34°41' E 135°11'3 2.9
2014-Apr-12 03:33N 34°38' E 135°09'3 3.0
2014-Apr-12 02:33N 34°41' E 135°11'3 0.2
2014-Apr-11 11:33N 34°38' E 135°11'2 1.7
2014-Apr-11 10:33N 34°40' E 135°11'  

Dump ship's entire track history

sailing weather and tide predictions

Concerto — JJ3855 — position and weather